Time;durP1;ratioP1;P1;durP2;ratioP2;P2;SDS_P1;SDS_P2;PMS_P1;PMS_P2;Temp;Humidity;BMP_temperature;BMP_pressure;BME280_temperature;BME280_humidity;BME280_pressure;Samples;Min_cycle;Max_cycle;Signal;HPM_P1;HPM_P2
2023/07/22 00:00:22;;;;;;;2.50;2.00;;;25.10;42.00;;;;;;5038466;28;20056;-59
2023/07/22 00:02:48;;;;;;;2.53;1.80;;;25.10;42.10;;;;;;5037599;28;20158;-60
2023/07/22 00:05:14;;;;;;;3.55;2.20;;;25.10;42.10;;;;;;5039097;28;20032;-60
2023/07/22 00:07:40;;;;;;;2.55;2.00;;;25.10;42.70;;;;;;5038139;28;20386;-58
2023/07/22 00:10:10;;;;;;;2.47;2.00;;;25.00;42.00;;;;;;5018016;28;20492;-58
2023/07/22 00:12:36;;;;;;;2.85;2.20;;;25.10;42.10;;;;;;5036709;28;20132;-57
2023/07/22 00:15:02;;;;;;;2.50;2.00;;;25.10;42.10;;;;;;5036941;28;20042;-58
2023/07/22 00:17:29;;;;;;;2.58;2.10;;;25.00;42.10;;;;;;5037320;28;20358;-60
2023/07/22 00:19:55;;;;;;;3.00;2.10;;;25.00;42.10;;;;;;5044296;28;20028;-60
2023/07/22 00:22:21;;;;;;;2.67;2.20;;;25.00;42.20;;;;;;5036246;28;20040;-58
2023/07/22 00:24:48;;;;;;;2.83;2.05;;;25.00;42.20;;;;;;5032350;28;20124;-62
2023/07/22 00:27:14;;;;;;;2.03;1.83;;;25.00;42.10;;;;;;5019857;28;20021;-59
2023/07/22 00:29:40;;;;;;;2.60;2.10;;;25.00;42.10;;;;;;5025353;28;20166;-60
2023/07/22 00:32:08;;;;;;;2.63;1.85;;;25.00;42.10;;;;;;5018964;28;20033;-59
2023/07/22 00:34:35;;;;;;;3.22;2.38;;;25.00;42.10;;;;;;5017540;28;20044;-60
2023/07/22 00:37:01;;;;;;;2.38;2.15;;;25.00;42.20;;;;;;5038590;28;20093;-57
2023/07/22 00:39:27;;;;;;;2.35;2.00;;;25.00;42.20;;;;;;5025628;28;20144;-61
2023/07/22 00:41:53;;;;;;;2.22;1.98;;;25.00;42.20;;;;;;5021980;28;20037;-58
2023/07/22 00:44:19;;;;;;;2.85;1.83;;;25.00;42.20;;;;;;5024210;28;20021;-60
2023/07/22 00:46:45;;;;;;;3.28;2.40;;;25.00;42.20;;;;;;5024584;28;20063;-59
2023/07/22 00:49:14;;;;;;;2.47;1.98;;;25.00;42.20;;;;;;5029384;28;20020;-60
2023/07/22 00:51:40;;;;;;;3.30;2.15;;;25.00;42.20;;;;;;5006724;28;20029;-60
2023/07/22 00:54:06;;;;;;;2.55;2.35;;;25.00;42.30;;;;;;5024177;28;20035;-56
2023/07/22 00:56:36;;;;;;;2.30;2.10;;;24.90;42.20;;;;;;5038743;28;20045;-58
2023/07/22 00:59:02;;;;;;;2.42;2.20;;;24.90;42.20;;;;;;5041245;28;20104;-58
2023/07/22 01:01:28;;;;;;;2.30;2.08;;;24.90;42.30;;;;;;5040619;28;20098;-59
2023/07/22 01:03:54;;;;;;;2.80;2.35;;;24.90;42.30;;;;;;5034831;28;20029;-60
2023/07/22 01:06:20;;;;;;;2.30;1.92;;;24.90;42.40;;;;;;5039426;28;20021;-62
2023/07/22 01:08:46;;;;;;;2.55;2.00;;;24.90;42.40;;;;;;5024139;28;20029;-60
2023/07/22 01:11:13;;;;;;;2.72;2.25;;;24.90;42.40;;;;;;5038941;28;20017;-58
2023/07/22 01:13:39;;;;;;;3.30;2.25;;;24.90;42.50;;;;;;5042035;28;20049;-61
2023/07/22 01:16:08;;;;;;;3.70;2.47;;;24.90;42.50;;;;;;5018991;28;20025;-60
2023/07/22 01:18:34;;;;;;;2.65;2.10;;;24.90;42.50;;;;;;5041060;28;20092;-59
2023/07/22 01:21:00;;;;;;;2.67;2.20;;;24.90;42.50;;;;;;5044811;28;20124;-58
2023/07/22 01:23:26;;;;;;;2.30;2.10;;;24.90;42.60;;;;;;5041384;28;20429;-62
2023/07/22 01:25:53;;;;;;;2.97;2.17;;;24.90;42.60;;;;;;5042190;28;20104;-58
2023/07/22 01:28:22;;;;;;;2.92;2.33;;;24.90;42.60;;;;;;5039047;28;20033;-59
2023/07/22 01:30:48;;;;;;;3.00;2.45;;;24.80;42.60;;;;;;5044552;28;20088;-59
2023/07/22 01:33:14;;;;;;;2.40;2.20;;;24.90;42.70;;;;;;5046155;28;20029;-59
2023/07/22 01:35:41;;;;;;;3.20;2.53;;;24.80;42.70;;;;;;5037345;28;20036;-58
2023/07/22 01:38:08;;;;;;;3.53;2.50;;;24.80;42.70;;;;;;5039887;28;20413;-60
2023/07/22 01:40:34;;;;;;;2.30;2.08;;;24.80;42.70;;;;;;5042556;28;20052;-60
2023/07/22 01:42:59;;;;;;;3.25;2.70;;;24.80;42.80;;;;;;5019691;28;20017;-59
2023/07/22 01:45:25;;;;;;;2.90;2.60;;;24.80;42.80;;;;;;5017639;28;20337;-60
2023/07/22 01:47:51;;;;;;;2.83;2.50;;;24.80;42.90;;;;;;5044979;28;20037;-61
2023/07/22 01:50:18;;;;;;;2.72;2.45;;;24.80;42.90;;;;;;5043321;28;20136;-58
2023/07/22 01:52:46;;;;;;;2.90;2.53;;;24.80;43.00;;;;;;5040229;28;20104;-60
2023/07/22 01:55:13;;;;;;;2.58;2.38;;;24.80;43.00;;;;;;5043832;28;20040;-61
2023/07/22 01:57:40;;;;;;;3.28;2.65;;;24.80;43.10;;;;;;5019725;28;20045;-60
2023/07/22 02:00:10;;;;;;;3.05;2.70;;;24.80;43.10;;;;;;5018146;28;20041;-59
2023/07/22 02:02:39;;;;;;;3.40;2.67;;;24.80;43.10;;;;;;5040100;28;20048;-57
2023/07/22 02:05:06;;;;;;;3.33;2.60;;;24.70;43.10;;;;;;5002901;28;20779;-60
2023/07/22 02:07:31;;;;;;;3.08;2.55;;;24.80;43.20;;;;;;5039638;28;20551;-60
2023/07/22 02:09:58;;;;;;;3.33;2.95;;;24.70;43.20;;;;;;5023534;28;20040;-57
2023/07/22 02:12:24;;;;;;;3.47;2.53;;;24.70;43.20;;;;;;5020077;28;20033;-59
2023/07/22 02:14:50;;;;;;;3.40;2.70;;;24.80;43.30;;;;;;5041614;28;20044;-59
2023/07/22 02:17:15;;;;;;;2.97;2.63;;;24.70;43.20;;;;;;5019102;28;20313;-60
2023/07/22 02:19:41;;;;;;;3.55;2.80;;;24.70;43.30;;;;;;5018034;28;20052;-58
2023/07/22 02:22:07;;;;;;;3.65;2.50;;;24.70;43.30;;;;;;5020096;28;20039;-61
2023/07/22 02:24:33;;;;;;;2.58;2.30;;;24.70;43.40;;;;;;5043886;28;20032;-59
2023/07/22 02:26:59;;;;;;;4.03;2.92;;;24.70;43.40;;;;;;5042075;28;20021;-58
2023/07/22 02:29:25;;;;;;;3.65;2.90;;;24.70;43.40;;;;;;5026754;28;20429;-61
2023/07/22 02:31:51;;;;;;;3.05;2.75;;;24.70;43.40;;;;;;5018665;28;20086;-60
2023/07/22 02:34:17;;;;;;;3.72;2.83;;;24.70;43.40;;;;;;5025954;28;20444;-61
2023/07/22 02:36:43;;;;;;;3.97;2.85;;;24.70;43.50;;;;;;5016718;28;20116;-60
2023/07/22 02:39:09;;;;;;;4.38;2.90;;;24.70;43.50;;;;;;5022969;28;20078;-54
2023/07/22 02:41:36;;;;;;;3.63;2.90;;;24.70;43.60;;;;;;5045732;28;20380;-60
2023/07/22 02:44:06;;;;;;;4.03;3.00;;;24.70;43.60;;;;;;5023024;28;20036;-58
2023/07/22 02:46:31;;;;;;;2.97;2.63;;;24.70;43.60;;;;;;5040641;28;20049;-58
2023/07/22 02:48:58;;;;;;;4.10;3.22;;;24.60;43.50;;;;;;5037956;28;20032;-59
2023/07/22 02:51:25;;;;;;;3.45;2.90;;;24.60;43.60;;;;;;5041206;28;20033;-61
2023/07/22 02:53:51;;;;;;;3.55;3.25;;;24.70;43.60;;;;;;5036666;28;20075;-58
2023/07/22 02:56:16;;;;;;;4.03;3.40;;;24.60;43.60;;;;;;5020375;28;20462;-58
2023/07/22 02:58:43;;;;;;;4.47;3.42;;;24.60;43.60;;;;;;5018015;28;20029;-57
2023/07/22 03:01:10;;;;;;;4.28;3.28;;;24.60;43.70;;;;;;5039401;28;20041;-60
2023/07/22 03:03:36;;;;;;;4.82;3.53;;;24.60;43.70;;;;;;5037927;28;20041;-59
2023/07/22 03:06:04;;;;;;;3.75;3.17;;;24.60;43.70;;;;;;5009293;28;20028;-57
2023/07/22 03:08:30;;;;;;;3.95;3.45;;;24.60;43.70;;;;;;5017561;28;20044;-57
2023/07/22 03:10:56;;;;;;;4.60;3.33;;;24.60;43.80;;;;;;5011852;28;20338;-57
2023/07/22 03:13:22;;;;;;;4.05;3.22;;;24.60;43.80;;;;;;5019991;28;20098;-60
2023/07/22 03:15:48;;;;;;;4.43;3.30;;;24.60;43.80;;;;;;5005924;28;20026;-60
2023/07/22 03:18:14;;;;;;;4.22;3.60;;;24.60;43.80;;;;;;5039439;28;20366;-58
2023/07/22 03:20:41;;;;;;;4.40;3.30;;;24.60;43.80;;;;;;5038786;28;20127;-60
2023/07/22 03:23:07;;;;;;;4.63;3.53;;;24.60;43.80;;;;;;5002722;28;20101;-61
2023/07/22 03:25:34;;;;;;;3.75;3.40;;;24.60;43.90;;;;;;5037787;28;20049;-60
2023/07/22 03:28:03;;;;;;;4.40;3.67;;;24.60;43.90;;;;;;5021815;28;20029;-61
2023/07/22 03:30:29;;;;;;;4.55;3.72;;;24.60;43.90;;;;;;5028750;28;20056;-59
2023/07/22 03:32:55;;;;;;;4.82;3.60;;;24.50;43.80;;;;;;5024439;28;20771;-58
2023/07/22 03:35:21;;;;;;;4.65;3.70;;;24.50;43.90;;;;;;5040512;28;20032;-61
2023/07/22 03:37:47;;;;;;;5.68;4.15;;;24.60;43.90;;;;;;5020397;28;20036;-61
2023/07/22 03:40:19;;;;;;;4.10;3.38;;;24.50;43.90;;;;;;5043286;28;20029;-60
2023/07/22 03:42:49;;;;;;;4.93;3.83;;;24.50;43.90;;;;;;5025703;28;20029;-60
2023/07/22 03:45:16;;;;;;;4.25;3.42;;;24.50;44.00;;;;;;5042149;28;20047;-57
2023/07/22 03:47:44;;;;;;;4.28;3.88;;;24.50;43.90;;;;;;5016668;28;20360;-60
2023/07/22 03:50:10;;;;;;;4.50;3.65;;;24.50;44.00;;;;;;5022425;28;20033;-60
2023/07/22 03:52:36;;;;;;;4.68;4.07;;;24.50;44.00;;;;;;5045078;28;20098;-59
2023/07/22 03:55:03;;;;;;;5.47;4.15;;;24.50;44.00;;;;;;5020950;28;20420;-57
2023/07/22 03:57:29;;;;;;;5.13;4.22;;;24.50;44.00;;;;;;5023231;28;20420;-61
2023/07/22 03:59:56;;;;;;;5.15;4.07;;;24.50;44.00;;;;;;5006822;28;20037;-60
2023/07/22 04:02:22;;;;;;;4.38;3.95;;;24.50;44.10;;;;;;5019222;28;20096;-58
2023/07/22 04:04:48;;;;;;;4.55;3.63;;;24.50;44.10;;;;;;5025739;28;20047;-59
2023/07/22 04:07:14;;;;;;;4.45;3.92;;;24.40;44.10;;;;;;5046353;28;20063;-59
2023/07/22 04:09:40;;;;;;;4.72;3.92;;;24.50;44.20;;;;;;5044253;28;20125;-58
2023/07/22 04:12:07;;;;;;;5.32;3.97;;;24.50;44.20;;;;;;5027668;28;20063;-58
2023/07/22 04:14:33;;;;;;;4.72;4.07;;;24.40;44.20;;;;;;5026150;28;20232;-58
2023/07/22 04:16:59;;;;;;;4.57;4.05;;;24.40;44.20;;;;;;5046767;28;20115;-60
2023/07/22 04:19:25;;;;;;;4.63;4.18;;;24.40;44.20;;;;;;5044068;28;20025;-59
2023/07/22 04:21:52;;;;;;;4.43;3.95;;;24.50;44.30;;;;;;5043524;28;20122;-59
2023/07/22 04:24:18;;;;;;;4.90;3.80;;;24.50;44.30;;;;;;5043459;28;20048;-60
2023/07/22 04:26:45;;;;;;;5.30;4.40;;;24.40;44.30;;;;;;5046741;28;20120;-58
2023/07/22 04:29:12;;;;;;;4.35;3.55;;;24.50;44.30;;;;;;5047131;28;20025;-56
2023/07/22 04:31:38;;;;;;;5.60;4.28;;;24.40;44.30;;;;;;5026422;28;20040;-60
2023/07/22 04:34:05;;;;;;;4.53;4.07;;;24.40;44.30;;;;;;5019301;28;20144;-60
2023/07/22 04:36:31;;;;;;;4.80;4.22;;;24.40;44.30;;;;;;5024721;28;20077;-59
2023/07/22 04:38:57;;;;;;;5.25;4.47;;;24.40;44.40;;;;;;5048721;28;20047;-58
2023/07/22 04:41:23;;;;;;;4.85;3.95;;;24.40;44.40;;;;;;5042338;28;20047;-58
2023/07/22 04:43:50;;;;;;;5.55;4.53;;;24.40;44.50;;;;;;5044771;28;20116;-60
2023/07/22 04:46:16;;;;;;;4.65;3.90;;;24.40;44.40;;;;;;5044970;28;20045;-58
2023/07/22 04:48:42;;;;;;;4.93;3.67;;;24.40;44.50;;;;;;5047468;28;20428;-60
2023/07/22 04:51:08;;;;;;;5.15;3.72;;;24.40;44.50;;;;;;5047062;28;20035;-59
2023/07/22 04:53:34;;;;;;;4.32;3.92;;;24.40;44.50;;;;;;5046437;28;20093;-57
2023/07/22 04:56:01;;;;;;;5.18;4.43;;;24.40;44.60;;;;;;5045962;28;20693;-59
2023/07/22 04:58:27;;;;;;;4.97;4.30;;;24.40;45.20;;;;;;5048118;28;20139;-58
2023/07/22 05:00:53;;;;;;;4.57;4.07;;;24.50;44.60;;;;;;5046270;28;20045;-60
2023/07/22 05:03:19;;;;;;;5.63;4.38;;;24.40;44.60;;;;;;5029901;28;20044;-60
2023/07/22 05:05:44;;;;;;;5.43;4.00;;;24.50;44.70;;;;;;5046847;28;20333;-57
2023/07/22 05:08:10;;;;;;;5.75;4.13;;;24.40;44.60;;;;;;5044273;28;20033;-60
2023/07/22 05:10:38;;;;;;;5.28;3.97;;;24.40;45.30;;;;;;5044959;28;20029;-58
2023/07/22 05:13:03;;;;;;;5.10;4.55;;;24.40;44.70;;;;;;5045545;28;20090;-57
2023/07/22 05:15:29;;;;;;;5.10;4.22;;;24.40;45.30;;;;;;5046153;28;20029;-62
2023/07/22 05:17:55;;;;;;;5.68;4.50;;;24.40;44.70;;;;;;5020510;28;20364;-57
2023/07/22 05:20:21;;;;;;;5.75;4.28;;;24.40;44.70;;;;;;5046640;28;20049;-59
2023/07/22 05:22:48;;;;;;;5.72;4.53;;;24.40;44.70;;;;;;5041048;28;20025;-60
2023/07/22 05:25:14;;;;;;;4.35;3.80;;;24.40;44.70;;;;;;5021578;28;20029;-60
2023/07/22 05:27:41;;;;;;;5.22;4.25;;;24.40;44.70;;;;;;5043891;28;20025;-59
2023/07/22 05:30:07;;;;;;;4.72;4.18;;;24.40;44.80;;;;;;5042262;28;20049;-59
2023/07/22 05:32:33;;;;;;;5.80;4.28;;;24.40;44.80;;;;;;5039610;28;20070;-55
2023/07/22 05:35:00;;;;;;;5.28;4.38;;;24.40;44.80;;;;;;5041073;28;20030;-58
2023/07/22 05:37:25;;;;;;;4.40;3.90;;;24.40;44.80;;;;;;5037067;28;20076;-58
2023/07/22 05:39:51;;;;;;;5.72;4.57;;;24.40;44.80;;;;;;5040091;28;20061;-58
2023/07/22 05:42:18;;;;;;;4.55;4.03;;;24.50;44.90;;;;;;5036557;28;20033;-60
2023/07/22 05:44:44;;;;;;;4.90;4.20;;;24.50;44.90;;;;;;5035313;28;20044;-61
2023/07/22 05:47:10;;;;;;;5.72;4.30;;;24.40;44.80;;;;;;5039334;28;20340;-60
2023/07/22 05:49:36;;;;;;;5.63;4.20;;;24.40;44.80;;;;;;5042871;28;20033;-61
2023/07/22 05:52:02;;;;;;;4.50;4.05;;;24.50;44.90;;;;;;5041728;28;20029;-59
2023/07/22 05:54:27;;;;;;;4.68;4.18;;;24.50;44.90;;;;;;5046161;28;20128;-61
2023/07/22 05:56:54;;;;;;;5.18;4.28;;;24.50;45.50;;;;;;5039867;28;20021;-57
2023/07/22 05:59:20;;;;;;;6.05;4.20;;;24.50;44.90;;;;;;5038939;28;20316;-54
2023/07/22 06:01:46;;;;;;;4.78;4.28;;;24.50;44.90;;;;;;5045544;28;20017;-60
2023/07/22 06:04:11;;;;;;;5.75;4.25;;;24.50;44.90;;;;;;5018299;28;20151;-58
2023/07/22 06:06:37;;;;;;;5.57;4.68;;;24.50;44.90;;;;;;5045564;28;20038;-57
2023/07/22 06:09:03;;;;;;;5.78;4.40;;;24.50;44.90;;;;;;5042112;28;20453;-58
2023/07/22 06:11:29;;;;;;;5.05;3.65;;;24.50;44.90;;;;;;5036792;28;20032;-59
2023/07/22 06:13:55;;;;;;;4.55;3.90;;;24.50;44.90;;;;;;5034514;28;20033;-60
2023/07/22 06:16:21;;;;;;;5.93;4.80;;;24.60;45.00;;;;;;5035705;28;20032;-59
2023/07/22 06:18:46;;;;;;;5.38;4.15;;;24.50;44.90;;;;;;5040954;28;20037;-61
2023/07/22 06:21:12;;;;;;;5.25;4.50;;;24.60;44.90;;;;;;5041572;28;20045;-59
2023/07/22 06:23:38;;;;;;;5.80;3.90;;;24.60;45.00;;;;;;5044354;28;20120;-58
2023/07/22 06:26:04;;;;;;;4.28;3.88;;;24.60;44.90;;;;;;5033836;28;20110;-59
2023/07/22 06:28:30;;;;;;;4.82;4.07;;;24.60;44.90;;;;;;5039460;28;20036;-60
2023/07/22 06:30:57;;;;;;;4.85;3.90;;;24.60;45.00;;;;;;5043836;28;20039;-62
2023/07/22 06:33:23;;;;;;;5.30;4.00;;;24.60;44.90;;;;;;5043557;28;20387;-60
2023/07/22 06:35:49;;;;;;;6.75;4.13;;;24.60;44.90;;;;;;5040273;28;20025;-56
2023/07/22 06:38:14;;;;;;;5.10;4.35;;;24.60;45.00;;;;;;5038317;28;20074;-61
2023/07/22 06:40:40;;;;;;;4.97;3.92;;;24.60;45.00;;;;;;5036802;28;20126;-59
2023/07/22 06:43:06;;;;;;;6.68;4.45;;;24.60;44.90;;;;;;5041171;28;20030;-59
2023/07/22 06:45:33;;;;;;;4.40;4.00;;;24.60;44.90;;;;;;5042586;28;20398;-57
2023/07/22 06:47:59;;;;;;;5.75;4.43;;;24.60;44.90;;;;;;5039979;28;20123;-54
2023/07/22 06:50:24;;;;;;;5.90;4.20;;;24.70;45.00;;;;;;5034722;28;20114;-61
2023/07/22 06:52:50;;;;;;;5.32;4.00;;;24.60;45.00;;;;;;5040923;28;20029;-60
2023/07/22 06:55:16;;;;;;;6.60;4.57;;;24.60;45.00;;;;;;5033102;28;21706;-59
2023/07/22 06:57:43;;;;;;;5.38;4.40;;;24.70;45.00;;;;;;5036234;28;20041;-57
2023/07/22 07:00:12;;;;;;;5.88;4.78;;;24.70;45.00;;;;;;5039817;28;20133;-61
2023/07/22 07:02:38;;;;;;;6.95;4.40;;;24.70;45.00;;;;;;5039714;28;20024;-59
2023/07/22 07:05:04;;;;;;;7.05;4.65;;;24.70;45.00;;;;;;5038705;28;21289;-61
2023/07/22 07:07:30;;;;;;;5.07;4.15;;;24.70;45.00;;;;;;5039052;28;20033;-62
2023/07/22 07:09:56;;;;;;;6.55;4.60;;;24.70;45.00;;;;;;5042275;28;20360;-59
2023/07/22 07:12:22;;;;;;;5.88;4.28;;;24.70;45.00;;;;;;5044323;28;20123;-57
2023/07/22 07:14:50;;;;;;;5.85;4.60;;;24.70;45.00;;;;;;5040008;28;20021;-61
2023/07/22 07:17:17;;;;;;;5.22;4.25;;;24.70;45.70;;;;;;5038616;28;20021;-61
2023/07/22 07:19:42;;;;;;;6.28;4.80;;;24.70;45.10;;;;;;5036334;28;20052;-61
2023/07/22 07:22:08;;;;;;;7.90;4.32;;;24.80;45.20;;;;;;5019310;28;20029;-59
2023/07/22 07:24:34;;;;;;;6.82;4.40;;;24.80;45.20;;;;;;5043850;28;20033;-59
2023/07/22 07:27:00;;;;;;;4.70;4.10;;;24.80;45.20;;;;;;5039596;28;20394;-58
2023/07/22 07:29:26;;;;;;;5.28;4.38;;;24.80;45.20;;;;;;5038894;28;20037;-57
2023/07/22 07:31:52;;;;;;;5.43;4.28;;;24.80;45.20;;;;;;5041993;28;20116;-58
2023/07/22 07:34:18;;;;;;;5.22;4.43;;;24.80;45.20;;;;;;5041463;28;20021;-61
2023/07/22 07:36:44;;;;;;;4.78;4.10;;;24.80;45.10;;;;;;5046753;28;20297;-61
2023/07/22 07:39:10;;;;;;;5.50;4.47;;;24.80;45.10;;;;;;5047038;28;20036;-58
2023/07/22 07:41:37;;;;;;;4.65;3.58;;;24.80;45.20;;;;;;5044215;28;20037;-59
2023/07/22 07:44:05;;;;;;;5.25;4.07;;;24.80;45.20;;;;;;5045121;28;20305;-60
2023/07/22 07:46:32;;;;;;;5.07;4.30;;;24.90;45.20;;;;;;5045797;28;20131;-63
2023/07/22 07:49:00;;;;;;;5.00;4.28;;;24.90;45.30;;;;;;5047487;28;20121;-61
2023/07/22 07:51:29;;;;;;;4.82;4.10;;;24.90;45.30;;;;;;5046503;28;20097;-58
2023/07/22 07:53:55;;;;;;;5.07;3.95;;;24.90;45.30;;;;;;5045572;28;20104;-59
2023/07/22 07:56:22;;;;;;;6.20;4.72;;;24.90;45.40;;;;;;5046996;28;20112;-58
2023/07/22 07:58:50;;;;;;;5.90;4.47;;;25.00;45.40;;;;;;5046964;28;20192;-59
2023/07/22 08:01:17;;;;;;;7.57;4.68;;;25.00;45.40;;;;;;5005178;28;20513;-60
2023/07/22 08:03:44;;;;;;;6.13;4.35;;;25.00;45.40;;;;;;5045996;28;20025;-59
2023/07/22 08:06:11;;;;;;;4.78;4.28;;;25.00;45.30;;;;;;5045563;28;20085;-60
2023/07/22 08:08:37;;;;;;;6.97;4.35;;;25.00;45.30;;;;;;5041401;28;20028;-60
2023/07/22 08:11:09;;;;;;;6.00;4.28;;;25.00;45.20;;;;;;5017823;28;20116;-60
2023/07/22 08:13:36;;;;;;;4.53;3.88;;;25.00;45.10;;;;;;5049960;28;20059;-59
2023/07/22 08:16:07;;;;;;;5.07;4.05;;;25.00;45.20;;;;;;5041200;28;20422;-61
2023/07/22 08:18:34;;;;;;;4.18;3.45;;;25.10;45.40;;;;;;5050216;28;20119;-59
2023/07/22 08:21:06;;;;;;;5.15;3.90;;;25.10;45.40;;;;;;5050944;28;20332;-62
2023/07/22 08:23:33;;;;;;;5.32;3.83;;;25.10;45.40;;;;;;5049145;28;20055;-60
2023/07/22 08:25:59;;;;;;;4.30;3.85;;;25.20;45.40;;;;;;5040807;28;20417;-60
2023/07/22 08:28:25;;;;;;;5.68;4.10;;;25.20;45.20;;;;;;5049646;28;20409;-62
2023/07/22 08:30:55;;;;;;;4.57;3.80;;;25.20;45.10;;;;;;5042285;28;20052;-59
2023/07/22 08:33:23;;;;;;;5.07;3.60;;;25.20;45.10;;;;;;5040223;28;20429;-62
2023/07/22 08:35:50;;;;;;;5.50;3.58;;;25.20;45.00;;;;;;5049537;28;20332;-60
2023/07/22 08:38:17;;;;;;;5.13;3.92;;;25.20;44.90;;;;;;5026992;28;20063;-60
2023/07/22 08:40:43;;;;;;;4.85;3.92;;;25.20;44.80;;;;;;5045057;28;20053;-61
2023/07/22 08:43:11;;;;;;;4.70;3.50;;;25.30;44.70;;;;;;5040686;28;20108;-61
2023/07/22 08:45:38;;;;;;;4.22;3.40;;;25.30;44.70;;;;;;5039330;28;20176;-61
2023/07/22 08:48:09;;;;;;;3.47;3.17;;;25.30;44.50;;;;;;5037386;28;20044;-57
2023/07/22 08:50:58;;;;;;;4.72;3.80;;;25.30;44.50;;;;;;5024630;28;20400;-60
2023/07/22 08:53:25;;;;;;;4.55;3.38;;;25.30;44.40;;;;;;5043780;28;20112;-61
2023/07/22 08:55:51;;;;;;;4.95;3.42;;;25.30;44.40;;;;;;5046996;28;20037;-60
2023/07/22 08:58:17;;;;;;;4.45;3.40;;;25.30;44.30;;;;;;5046594;28;20436;-60
2023/07/22 09:00:43;;;;;;;4.07;3.25;;;25.30;44.30;;;;;;5046700;28;20179;-60
2023/07/22 09:03:11;;;;;;;4.00;3.30;;;25.30;44.30;;;;;;5046971;28;20476;-61
2023/07/22 09:05:38;;;;;;;3.85;3.03;;;25.30;44.30;;;;;;5040875;28;20360;-59
2023/07/22 09:08:08;;;;;;;5.30;3.38;;;25.30;44.30;;;;;;5026851;28;20036;-59
2023/07/22 09:10:35;;;;;;;4.30;3.58;;;25.30;44.30;;;;;;5028294;28;20024;-59
2023/07/22 09:13:01;;;;;;;5.00;3.40;;;25.30;44.40;;;;;;5047656;28;20033;-62
2023/07/22 09:15:27;;;;;;;5.30;3.80;;;25.40;44.40;;;;;;5048522;28;20043;-61
2023/07/22 09:17:54;;;;;;;4.30;3.33;;;25.40;44.40;;;;;;5046790;28;20086;-57
2023/07/22 09:20:21;;;;;;;3.90;3.22;;;25.40;44.40;;;;;;5047958;28;20086;-56
2023/07/22 09:22:49;;;;;;;8.48;3.88;;;25.40;44.40;;;;;;5049456;28;20044;-60
2023/07/22 09:25:20;;;;;;;4.78;3.65;;;25.40;45.00;;;;;;5028922;28;20029;-60
2023/07/22 09:27:50;;;;;;;4.75;3.72;;;25.40;44.40;;;;;;5049066;28;20025;-56
2023/07/22 09:30:25;;;;;;;4.45;3.63;;;25.50;45.00;;;;;;5049007;28;20308;-57
2023/07/22 09:32:53;;;;;;;5.20;3.10;;;25.50;44.40;;;;;;5045611;28;20088;-55
2023/07/22 09:35:19;;;;;;;4.03;3.22;;;25.50;44.30;;;;;;5044845;28;20040;-56
2023/07/22 09:37:46;;;;;;;4.10;3.20;;;25.50;44.30;;;;;;5048685;28;20036;-60
2023/07/22 09:40:26;;;;;;;3.92;2.90;;;25.50;44.20;;;;;;5048734;28;20356;-63
2023/07/22 09:42:54;;;;;;;4.60;3.35;;;25.50;44.20;;;;;;5044515;28;20068;-62
2023/07/22 09:45:23;;;;;;;4.07;3.03;;;25.50;44.10;;;;;;5047941;28;20455;-64
2023/07/22 09:47:51;;;;;;;4.78;3.08;;;25.60;44.10;;;;;;5048746;28;20040;-59
2023/07/22 09:50:21;;;;;;;4.10;3.13;;;25.60;44.10;;;;;;5026363;28;20066;-61
2023/07/22 09:52:50;;;;;;;3.45;2.70;;;25.60;44.10;;;;;;5041964;28;20095;-58
2023/07/22 09:55:28;;;;;;;3.92;3.15;;;25.60;44.10;;;;;;5039922;28;20021;-56
2023/07/22 09:58:02;;;;;;;3.63;3.00;;;25.60;44.00;;;;;;5048865;28;20076;-57
2023/07/22 10:00:31;;;;;;;4.45;2.92;;;25.60;43.90;;;;;;5043199;28;20036;-58
2023/07/22 10:02:58;;;;;;;4.22;3.15;;;25.60;43.80;;;;;;5041736;28;20090;-60
2023/07/22 10:05:26;;;;;;;3.90;3.17;;;25.60;43.80;;;;;;5040682;28;20036;-57
2023/07/22 10:07:57;;;;;;;4.38;3.05;;;25.60;43.70;;;;;;5041468;28;20312;-57
2023/07/22 10:10:34;;;;;;;4.43;2.58;;;25.70;43.50;;;;;;5040171;28;20041;-59
2023/07/22 10:13:01;;;;;;;7.20;3.10;;;25.70;43.40;;;;;;5047098;28;20041;-58
2023/07/22 10:15:33;;;;;;;5.10;2.92;;;25.70;43.50;;;;;;5045031;28;20044;-56
2023/07/22 10:18:00;;;;;;;5.22;2.45;;;25.80;43.60;;;;;;5045201;28;20036;-59
2023/07/22 10:20:29;;;;;;;3.65;2.60;;;25.80;43.60;;;;;;5038618;28;20100;-58
2023/07/22 10:22:56;;;;;;;3.15;2.67;;;25.80;43.40;;;;;;5040808;28;20025;-56
2023/07/22 10:25:22;;;;;;;4.82;2.70;;;25.80;43.30;;;;;;5038139;28;20029;-57
2023/07/22 10:27:49;;;;;;;4.07;2.67;;;25.80;43.20;;;;;;5044261;28;20330;-55
2023/07/22 10:30:17;;;;;;;2.70;2.25;;;25.80;43.10;;;;;;5041105;28;20021;-58
2023/07/22 10:32:46;;;;;;;3.22;2.30;;;25.80;43.00;;;;;;5033856;28;20108;-58
2023/07/22 10:35:31;;;;;;;2.92;2.17;;;25.80;42.80;;;;;;5052796;28;20282;-57
2023/07/22 10:38:17;;;;;;;2.67;2.15;;;25.80;42.70;;;;;;5019457;28;20037;-53
2023/07/22 10:40:55;;;;;;;3.45;2.28;;;25.90;42.70;;;;;;5042772;28;20060;-59
2023/07/22 10:43:34;;;;;;;3.67;2.45;;;25.90;42.60;;;;;;5044772;28;20367;-51
2023/07/22 10:46:08;;;;;;;3.30;2.35;;;25.90;42.50;;;;;;5047661;28;20360;-58
2023/07/22 10:48:37;;;;;;;3.53;2.10;;;25.90;42.40;;;;;;5042586;28;20385;-57
2023/07/22 10:51:07;;;;;;;2.15;1.90;;;25.90;42.40;;;;;;5047578;28;20448;-54
2023/07/22 10:53:37;;;;;;;2.22;2.03;;;25.90;42.30;;;;;;5045777;28;20115;-59
2023/07/22 10:56:11;;;;;;;2.55;1.92;;;25.90;42.30;;;;;;5041408;28;20331;-58
2023/07/22 10:58:46;;;;;;;2.42;1.90;;;25.90;42.20;;;;;;5045175;28;20048;-59
2023/07/22 11:01:28;;;;;;;4.05;2.00;;;25.90;42.20;;;;;;5037582;28;20049;-61
2023/07/22 11:04:03;;;;;;;2.65;1.98;;;25.90;42.00;;;;;;5042670;28;20697;-59
2023/07/22 11:06:29;;;;;;;2.55;2.10;;;25.90;42.10;;;;;;5037291;28;20068;-58
2023/07/22 11:08:56;;;;;;;2.08;1.80;;;25.90;42.20;;;;;;5038403;28;20326;-60
2023/07/22 11:11:39;;;;;;;2.63;2.00;;;25.90;42.30;;;;;;5043704;28;20017;-59
2023/07/22 11:14:18;;;;;;;3.13;1.98;;;25.90;42.30;;;;;;5018965;28;20063;-59
2023/07/22 11:16:47;;;;;;;4.85;2.05;;;26.00;42.40;;;;;;5023861;28;20115;-59
2023/07/22 11:19:14;;;;;;;2.47;2.25;;;26.00;42.30;;;;;;5042239;28;20042;-60
2023/07/22 11:21:41;;;;;;;2.92;2.05;;;26.00;42.30;;;;;;5041760;28;20063;-60
2023/07/22 11:24:08;;;;;;;3.00;2.17;;;26.10;42.20;;;;;;5039550;28;20036;-58
2023/07/22 11:26:34;;;;;;;2.42;1.90;;;26.20;42.30;;;;;;5041892;28;20022;-58
2023/07/22 11:29:01;;;;;;;3.40;1.80;;;26.20;42.20;;;;;;5036379;28;20762;-59
2023/07/22 11:31:42;;;;;;;2.60;1.70;;;26.20;42.10;;;;;;5023623;28;20332;-58
2023/07/22 11:34:09;;;;;;;2.97;2.13;;;26.30;42.00;;;;;;5042357;28;20068;-58
2023/07/22 11:36:35;;;;;;;3.08;1.70;;;26.30;41.80;;;;;;5042687;28;20032;-56
2023/07/22 11:39:09;;;;;;;2.35;1.75;;;26.30;41.70;;;;;;5043881;28;20056;-56
2023/07/22 11:41:37;;;;;;;2.55;1.85;;;26.30;41.60;;;;;;5041043;28;20041;-55
2023/07/22 11:44:13;;;;;;;2.10;1.73;;;26.30;41.50;;;;;;5042839;28;20426;-53
2023/07/22 11:47:09;;;;;;;2.45;1.58;;;26.30;41.50;;;;;;5023850;28;20041;-58
2023/07/22 11:49:40;;;;;;;1.80;1.60;;;26.30;41.40;;;;;;5042231;28;20346;-53
2023/07/22 11:52:08;;;;;;;2.33;1.40;;;26.30;41.30;;;;;;5043167;28;20456;-58
2023/07/22 11:54:36;;;;;;;1.90;1.70;;;26.30;41.30;;;;;;5042938;28;20033;-58
2023/07/22 11:57:22;;;;;;;1.70;1.40;;;26.30;41.20;;;;;;5023214;28;20179;-56
2023/07/22 11:59:53;;;;;;;2.25;1.40;;;26.20;41.10;;;;;;5041675;28;20067;-53
2023/07/22 12:02:28;;;;;;;1.98;1.30;;;26.20;41.10;;;;;;5042470;28;20076;-56
2023/07/22 12:04:59;;;;;;;2.50;1.50;;;26.20;41.10;;;;;;5042297;28;20079;-56
2023/07/22 12:07:32;;;;;;;2.00;1.33;;;26.20;41.00;;;;;;5044362;28;20040;-58
2023/07/22 12:10:05;;;;;;;2.03;1.30;;;26.20;41.00;;;;;;5041717;28;20025;-57
2023/07/22 12:12:39;;;;;;;2.10;1.40;;;26.20;41.00;;;;;;5024264;28;20425;-62
2023/07/22 12:15:15;;;;;;;3.28;1.35;;;26.20;41.60;;;;;;5040465;28;20163;-61
2023/07/22 12:17:48;;;;;;;1.88;1.40;;;26.20;41.00;;;;;;5042415;28;20033;-59
2023/07/22 12:20:15;;;;;;;2.53;1.65;;;26.20;41.00;;;;;;5041813;28;20042;-57
2023/07/22 12:22:45;;;;;;;2.63;1.20;;;26.20;41.10;;;;;;5043644;28;20036;-57
2023/07/22 12:25:11;;;;;;;1.98;1.08;;;26.20;41.10;;;;;;5041320;28;20025;-60
2023/07/22 12:27:37;;;;;;;5.85;1.67;;;26.20;41.30;;;;;;5045685;28;20046;-58
2023/07/22 12:30:05;;;;;;;2.65;1.50;;;26.20;41.50;;;;;;5047259;28;20033;-58
2023/07/22 12:32:31;;;;;;;2.75;1.30;;;26.20;41.50;;;;;;5044276;28;20099;-60
2023/07/22 12:34:57;;;;;;;2.85;1.67;;;26.20;41.50;;;;;;5048307;28;20397;-59
2023/07/22 12:37:23;;;;;;;2.30;1.23;;;26.20;41.40;;;;;;5047717;28;20021;-58
2023/07/22 12:39:52;;;;;;;2.03;1.38;;;26.20;41.40;;;;;;5047023;28;20040;-58
2023/07/22 12:42:18;;;;;;;2.33;1.40;;;26.20;41.30;;;;;;5045400;28;20135;-58
2023/07/22 12:44:44;;;;;;;3.00;1.10;;;26.20;41.30;;;;;;5045899;28;20040;-58
2023/07/22 12:47:10;;;;;;;1.40;1.00;;;26.20;41.20;;;;;;5044076;28;20115;-57
2023/07/22 12:49:35;;;;;;;2.75;1.52;;;26.20;41.20;;;;;;5047299;28;20158;-57